Terminal Aerodrome Forecast
Issued by NWS Cleveland, OH

Home | Current Version | Previous Version | Graphics & Text | Print | Product List | Glossary Off
Versions: 1 2 3 4 5 6 7 8 9 10 11 12 13 14 15 16 17 18 19 20 21 22 23 24 25 26

052
FTUS41 KCLE 240647 AAA
TAFMFD
TAF AMD
KMFD 240647Z 2407/2506 VRB04KT P6SM OVC008
     FM241200 06008KT 3SM -RA BR OVC003
     FM242100 09010KT P6SM SCT003 OVC012
     FM242300 11010KT 3SM -RA BR OVC003
     FM250400 15012G20KT 2SM -RA BR BKN003 OVC020=

USA.gov is the U.S. government's official web portal to all federal, state and local government web resources and services.